createdAt,value
2017-05-14T00:01:16.385Z,1.90
2017-05-14T00:03:44.703Z,1.38
2017-05-14T00:06:13.018Z,1.30
2017-05-14T00:08:41.370Z,1.12
2017-05-14T00:11:10.429Z,1.40
2017-05-14T00:13:39.490Z,1.80
2017-05-14T00:16:07.842Z,1.12
2017-05-14T00:18:36.158Z,1.00
2017-05-14T00:21:04.458Z,0.90
2017-05-14T00:23:33.531Z,1.10
2017-05-14T00:26:01.842Z,1.20
2017-05-14T00:28:30.154Z,1.54
2017-05-14T00:30:58.493Z,1.28
2017-05-14T00:33:26.791Z,1.30
2017-05-14T00:35:55.093Z,1.74
2017-05-14T00:38:23.443Z,1.60
2017-05-14T00:40:51.745Z,1.40
2017-05-14T00:43:20.055Z,1.06
2017-05-14T00:45:48.395Z,1.28
2017-05-14T00:48:16.723Z,1.16
2017-05-14T00:50:45.773Z,0.80
2017-05-14T00:53:14.127Z,1.10
2017-05-14T00:55:42.427Z,0.82
2017-05-14T00:58:10.734Z,0.80
2017-05-14T01:00:39.076Z,0.98
2017-05-14T01:03:07.372Z,0.80
2017-05-14T01:05:35.667Z,1.18
2017-05-14T01:08:04.000Z,1.56
2017-05-14T01:10:32.319Z,1.42
2017-05-14T01:13:00.632Z,1.46
2017-05-14T01:15:29.710Z,1.20
2017-05-14T01:17:58.026Z,1.06
2017-05-14T01:20:26.344Z,1.30
2017-05-14T01:22:54.700Z,0.80
2017-05-14T01:25:23.014Z,0.98
2017-05-14T01:27:51.330Z,1.20
2017-05-14T01:30:19.671Z,1.10
2017-05-14T01:32:47.972Z,1.20
2017-05-14T01:35:17.023Z,1.28
2017-05-14T01:37:45.398Z,1.20
2017-05-14T01:40:13.733Z,1.34
2017-05-14T01:42:42.787Z,1.20
2017-05-14T01:45:11.127Z,1.42
2017-05-14T01:47:39.444Z,1.10
2017-05-14T01:50:07.762Z,1.42
2017-05-14T01:52:36.107Z,1.54
2017-05-14T01:55:05.164Z,1.50
2017-05-14T01:57:33.460Z,1.04
2017-05-14T02:00:02.555Z,1.44
2017-05-14T02:02:30.869Z,1.14
2017-05-14T02:04:59.167Z,1.46
2017-05-14T02:07:27.517Z,1.32
2017-05-14T02:09:55.826Z,1.10
2017-05-14T02:12:24.119Z,0.96
2017-05-14T02:14:52.473Z,1.08
2017-05-14T02:17:20.790Z,1.30
2017-05-14T02:19:49.103Z,1.40
2017-05-14T02:22:17.453Z,1.54
2017-05-14T02:24:45.770Z,1.44
2017-05-14T02:27:14.066Z,1.20
2017-05-14T02:29:43.150Z,1.68
2017-05-14T02:32:11.463Z,1.64
2017-05-14T02:34:39.773Z,1.20
2017-05-14T02:37:08.126Z,1.30
2017-05-14T02:39:36.440Z,1.00
2017-05-14T02:42:05.475Z,1.42
2017-05-14T02:44:33.822Z,1.66
2017-05-14T02:47:02.860Z,1.50
2017-05-14T02:49:31.170Z,1.36
2017-05-14T02:51:59.510Z,1.28
2017-05-14T02:54:27.832Z,1.26
2017-05-14T02:56:56.886Z,1.30
2017-05-14T02:59:25.246Z,1.26
2017-05-14T03:01:53.563Z,1.10
2017-05-14T03:04:21.876Z,1.06
2017-05-14T03:06:50.235Z,1.10
2017-05-14T03:09:18.553Z,1.06
2017-05-14T03:11:47.606Z,0.78
2017-05-14T03:14:15.968Z,1.10
2017-05-14T03:16:44.263Z,1.10
2017-05-14T03:19:12.570Z,1.00
2017-05-14T03:21:41.658Z,1.22
2017-05-14T03:24:09.975Z,1.44
2017-05-14T03:26:38.287Z,0.90
2017-05-14T03:29:06.646Z,1.18
2017-05-14T03:31:34.961Z,1.02
2017-05-14T03:34:03.322Z,1.24
2017-05-14T03:36:31.658Z,1.08
2017-05-14T03:38:59.966Z,0.90
2017-05-14T03:41:28.271Z,1.20
2017-05-14T03:43:56.598Z,1.48
2017-05-14T03:46:24.915Z,1.40
2017-05-14T03:48:53.226Z,1.90
2017-05-14T03:51:21.577Z,1.00
2017-05-14T03:53:49.883Z,1.30
2017-05-14T03:56:18.175Z,1.50
2017-05-14T03:58:46.534Z,1.84
2017-05-14T04:01:14.847Z,1.60
2017-05-14T04:03:43.887Z,1.60
2017-05-14T04:06:12.240Z,1.44
2017-05-14T04:08:40.549Z,1.66
2017-05-14T04:11:09.598Z,1.40
2017-05-14T04:13:37.925Z,1.20
2017-05-14T04:16:06.238Z,1.20
2017-05-14T04:18:34.546Z,1.20
2017-05-14T04:21:03.665Z,1.00
2017-05-14T04:23:32.695Z,0.84
2017-05-14T04:26:01.006Z,1.36
2017-05-14T04:28:29.357Z,1.16
2017-05-14T04:30:57.660Z,2.10
2017-05-14T04:33:25.973Z,2.18
2017-05-14T04:35:54.315Z,1.94
2017-05-14T04:38:22.625Z,1.56
2017-05-14T04:40:50.941Z,1.74
2017-05-14T04:43:19.295Z,1.50
2017-05-14T04:45:48.327Z,1.34
2017-05-14T04:48:16.633Z,1.50
2017-05-14T04:50:44.984Z,1.50
2017-05-14T04:53:13.295Z,2.04
2017-05-14T04:55:41.587Z,2.36
2017-05-14T04:58:09.933Z,2.74
2017-05-14T05:00:38.243Z,2.02
2017-05-14T05:03:07.312Z,2.34
2017-05-14T05:05:35.664Z,2.40
2017-05-14T05:08:03.962Z,2.30
2017-05-14T05:10:32.274Z,2.50
2017-05-14T05:13:00.614Z,2.78
2017-05-14T05:15:28.898Z,2.06
2017-05-14T05:17:57.210Z,3.02
2017-05-14T05:20:25.542Z,2.10
2017-05-14T05:22:53.852Z,2.38
2017-05-14T05:25:22.170Z,2.52
2017-05-14T05:27:51.254Z,3.14
2017-05-14T05:30:19.569Z,1.86
2017-05-14T05:32:47.859Z,2.22
2017-05-14T05:35:16.207Z,2.34
2017-05-14T05:37:45.262Z,2.34
2017-05-14T05:40:13.569Z,2.94
2017-05-14T05:42:41.918Z,1.90
2017-05-14T05:45:10.234Z,2.14
2017-05-14T05:47:38.553Z,3.00
2017-05-14T05:50:06.871Z,2.06
2017-05-14T05:52:35.187Z,1.88
2017-05-14T05:55:03.502Z,2.78
2017-05-14T05:57:31.834Z,2.88
2017-05-14T06:00:00.117Z,2.48
2017-05-14T06:02:28.430Z,2.22
2017-05-14T06:04:56.763Z,2.58
2017-05-14T06:07:25.070Z,2.68
2017-05-14T06:09:53.381Z,2.68
2017-05-14T06:12:22.472Z,2.54
2017-05-14T06:14:51.502Z,2.84
2017-05-14T06:17:19.789Z,2.34
2017-05-14T06:19:48.129Z,3.18
2017-05-14T06:22:16.437Z,3.64
2017-05-14T06:24:44.751Z,3.40
2017-05-14T06:27:13.118Z,3.28
2017-05-14T06:29:41.415Z,3.36
2017-05-14T06:32:09.722Z,2.86
2017-05-14T06:34:38.071Z,2.90
2017-05-14T06:37:06.395Z,2.44
2017-05-14T06:39:34.717Z,2.46
2017-05-14T06:42:03.067Z,2.20
2017-05-14T06:44:31.376Z,2.32
2017-05-14T06:46:59.675Z,2.40
2017-05-14T06:49:28.004Z,2.20
2017-05-14T06:51:56.319Z,2.44
2017-05-14T06:54:24.629Z,2.36
2017-05-14T06:56:53.721Z,2.48
2017-05-14T06:59:22.775Z,2.12
2017-05-14T07:01:51.118Z,2.80
2017-05-14T07:04:19.473Z,2.84
2017-05-14T07:06:48.526Z,3.40
2017-05-14T07:09:16.837Z,3.36
2017-05-14T07:11:45.896Z,4.28
2017-05-14T07:14:14.215Z,5.48
2017-05-14T07:16:43.601Z,5.60
2017-05-14T07:19:12.715Z,4.92
2017-05-14T07:21:41.770Z,6.34
2017-05-14T07:24:10.094Z,5.48
2017-05-14T07:26:38.436Z,5.88
2017-05-14T07:29:06.754Z,6.52
2017-05-14T07:31:35.066Z,6.64
2017-05-14T07:34:04.139Z,6.60
2017-05-14T07:36:32.439Z,6.02
2017-05-14T07:39:01.494Z,5.88
2017-05-14T07:41:29.828Z,5.84
2017-05-14T07:43:58.141Z,6.80
2017-05-14T07:46:27.190Z,6.32
2017-05-14T07:48:55.551Z,6.48
2017-05-14T07:51:23.894Z,6.82
2017-05-14T07:53:52.942Z,7.10
2017-05-14T07:56:21.301Z,5.58
2017-05-14T07:58:49.616Z,6.90
2017-05-14T08:01:17.906Z,8.38
2017-05-14T08:03:46.994Z,7.62
2017-05-14T08:06:16.054Z,6.60
2017-05-14T08:08:44.370Z,6.72
2017-05-14T08:11:13.430Z,8.80
2017-05-14T08:13:41.741Z,6.84
2017-05-14T08:16:10.772Z,6.66
2017-05-14T08:18:39.122Z,6.16
2017-05-14T08:21:08.176Z,6.50
2017-05-14T08:23:36.485Z,6.42
2017-05-14T08:26:04.824Z,7.80
2017-05-14T08:28:33.136Z,6.34
2017-05-14T08:31:02.170Z,7.78
2017-05-14T08:33:30.520Z,7.28
2017-05-14T08:35:58.840Z,5.70
2017-05-14T08:38:27.164Z,5.88
2017-05-14T08:40:56.253Z,6.66
2017-05-14T08:43:25.290Z,6.40
2017-05-14T08:45:53.594Z,6.10
2017-05-14T08:48:21.935Z,6.74
2017-05-14T08:50:50.252Z,7.68
2017-05-14T08:53:18.546Z,6.94
2017-05-14T08:55:46.887Z,7.60
2017-05-14T08:58:15.199Z,5.66
2017-05-14T09:00:43.522Z,5.56
2017-05-14T09:03:11.873Z,4.72
2017-05-14T09:05:40.930Z,6.54
2017-05-14T09:08:09.242Z,5.18
2017-05-14T09:10:38.311Z,6.10
2017-05-14T09:13:06.619Z,5.40
2017-05-14T09:15:35.673Z,5.50
2017-05-14T09:18:04.053Z,6.24
2017-05-14T09:20:32.363Z,6.46
2017-05-14T09:23:01.108Z,5.50
2017-05-14T09:25:29.457Z,6.78
2017-05-14T09:27:58.498Z,5.38
2017-05-14T09:30:26.814Z,5.36
2017-05-14T09:32:55.135Z,4.72
2017-05-14T09:35:23.446Z,6.98
2017-05-14T09:37:51.758Z,6.68
2017-05-14T09:40:20.114Z,6.96
2017-05-14T09:42:48.431Z,5.42
2017-05-14T09:45:17.486Z,5.14
2017-05-14T09:47:45.835Z,5.10
2017-05-14T09:50:14.127Z,5.60
2017-05-14T09:52:42.417Z,6.82
2017-05-14T09:55:11.499Z,8.04
2017-05-14T09:57:39.811Z,6.40
2017-05-14T10:00:08.134Z,6.40
2017-05-14T10:02:36.470Z,6.72
2017-05-14T10:05:04.787Z,5.80
2017-05-14T10:07:33.105Z,6.38
2017-05-14T10:10:01.439Z,7.08
2017-05-14T10:12:29.755Z,5.64
2017-05-14T10:14:58.051Z,5.98
2017-05-14T10:17:26.374Z,6.44
2017-05-14T10:19:54.685Z,6.42
2017-05-14T10:22:23.741Z,5.28
2017-05-14T10:24:52.089Z,5.12
2017-05-14T10:27:20.397Z,5.38
2017-05-14T10:29:48.705Z,4.30
2017-05-14T10:32:17.041Z,5.26
2017-05-14T10:34:45.364Z,4.14
2017-05-14T10:37:14.422Z,4.32
2017-05-14T10:39:42.757Z,3.62
2017-05-14T10:42:11.073Z,2.98
2017-05-14T10:44:40.125Z,3.74
2017-05-14T10:47:08.454Z,3.86
2017-05-14T10:49:37.486Z,3.24
2017-05-14T10:52:05.831Z,3.04
2017-05-14T10:54:34.867Z,2.96
2017-05-14T10:57:03.178Z,3.02
2017-05-14T10:59:31.533Z,3.22
2017-05-14T11:01:59.846Z,3.02
2017-05-14T11:04:28.162Z,3.66
2017-05-14T11:06:56.518Z,2.60
2017-05-14T11:09:25.594Z,4.42
2017-05-14T11:11:54.615Z,2.56
2017-05-14T11:14:22.969Z,2.38
2017-05-14T11:16:52.022Z,2.08
2017-05-14T11:19:20.338Z,2.42
2017-05-14T11:21:49.438Z,2.48
2017-05-14T11:24:18.493Z,2.06
2017-05-14T11:26:46.806Z,1.90
2017-05-14T11:29:15.894Z,1.80
2017-05-14T11:31:44.950Z,1.90
2017-05-14T11:34:13.251Z,1.62
2017-05-14T11:36:41.597Z,1.80
2017-05-14T11:39:09.890Z,1.78
2017-05-14T11:41:38.203Z,1.50
2017-05-14T11:44:07.272Z,1.64
2017-05-14T11:46:35.634Z,1.88
2017-05-14T11:49:03.947Z,1.40
2017-05-14T11:51:33.020Z,1.54
2017-05-14T11:54:01.348Z,2.30
2017-05-14T11:56:29.659Z,2.12
2017-05-14T11:58:58.018Z,2.00
2017-05-14T12:01:26.325Z,1.76
2017-05-14T12:03:54.639Z,1.62
2017-05-14T12:06:23.734Z,1.24
2017-05-14T12:08:52.775Z,1.50
2017-05-14T12:11:21.095Z,1.68
2017-05-14T12:13:49.450Z,1.50
2017-05-14T12:16:17.767Z,1.92
2017-05-14T12:18:46.078Z,1.90
2017-05-14T12:21:14.426Z,2.22
2017-05-14T12:23:43.485Z,1.60
2017-05-14T12:26:11.803Z,1.58
2017-05-14T12:28:40.894Z,1.86
2017-05-14T12:31:09.227Z,1.68
2017-05-14T12:33:37.537Z,1.40
2017-05-14T12:36:05.877Z,1.20
2017-05-14T12:38:34.189Z,1.28
2017-05-14T12:41:02.501Z,1.48
2017-05-14T12:43:31.578Z,1.78
2017-05-14T12:45:59.896Z,1.82
2017-05-14T12:48:28.214Z,1.96
2017-05-14T12:50:56.570Z,2.30
2017-05-14T12:53:24.882Z,1.60
2017-05-14T12:55:53.199Z,1.40
2017-05-14T12:58:25.096Z,1.56
2017-05-14T13:00:53.454Z,1.52
2017-05-14T13:03:22.829Z,1.46
2017-05-14T13:05:51.181Z,1.04
2017-05-14T13:08:19.494Z,1.60
2017-05-14T13:10:47.816Z,1.68
2017-05-14T13:13:16.167Z,1.70
2017-05-14T13:15:45.209Z,1.42
2017-05-14T13:18:13.526Z,1.44
2017-05-14T13:20:42.609Z,1.80
2017-05-14T13:23:10.919Z,1.56
2017-05-14T13:25:39.234Z,1.44
2017-05-14T13:28:07.580Z,1.38
2017-05-14T13:30:36.623Z,1.26
2017-05-14T13:33:04.935Z,1.20
2017-05-14T13:35:34.011Z,1.58
2017-05-14T13:38:02.311Z,1.20
2017-05-14T13:40:31.350Z,1.22
2017-05-14T13:42:59.697Z,1.58
2017-05-14T13:45:27.242Z,1.24
2017-05-14T13:47:56.299Z,1.84
2017-05-14T13:50:24.649Z,1.96
2017-05-14T13:52:52.962Z,1.98
2017-05-14T13:55:21.280Z,1.82
2017-05-14T13:57:50.354Z,2.08
2017-05-14T14:00:18.674Z,1.86
2017-05-14T14:02:47.038Z,2.48
2017-05-14T14:05:15.363Z,2.62
2017-05-14T14:07:43.682Z,2.64
2017-05-14T14:10:12.036Z,2.42
2017-05-14T14:12:41.102Z,2.80
2017-05-14T14:15:09.417Z,2.48
2017-05-14T14:17:37.775Z,3.12
2017-05-14T14:20:06.829Z,2.68
2017-05-14T14:22:35.157Z,3.40
2017-05-14T14:25:03.509Z,2.10
2017-05-14T14:27:31.799Z,1.92
2017-05-14T14:30:00.839Z,2.28
2017-05-14T14:32:29.179Z,2.36
2017-05-14T14:34:58.230Z,1.86
2017-05-14T14:37:26.541Z,1.86
2017-05-14T14:39:55.629Z,1.80
2017-05-14T14:42:23.941Z,5.08
2017-05-14T14:44:52.249Z,2.22
2017-05-14T14:47:20.595Z,1.36
2017-05-14T14:49:48.897Z,1.48
2017-05-14T14:52:17.188Z,1.80
2017-05-14T14:54:45.940Z,1.16
2017-05-14T14:57:14.262Z,3.76
2017-05-14T14:59:42.592Z,3.44
2017-05-14T15:02:10.946Z,3.06
2017-05-14T15:04:39.240Z,2.78
2017-05-14T15:07:07.567Z,1.62
2017-05-14T15:09:35.992Z,2.22
2017-05-14T15:12:04.290Z,1.30
2017-05-14T15:14:33.334Z,1.88
2017-05-14T15:17:01.685Z,1.74
2017-05-14T15:19:30.005Z,1.38
2017-05-14T15:21:58.322Z,1.84
2017-05-14T15:24:27.414Z,1.42
2017-05-14T15:26:56.462Z,1.60
2017-05-14T15:29:24.774Z,1.88
2017-05-14T15:31:53.115Z,1.56
2017-05-14T15:34:21.430Z,2.84
2017-05-14T15:36:49.734Z,1.48
2017-05-14T15:39:18.818Z,3.80
2017-05-14T15:41:47.133Z,3.20
2017-05-14T15:44:15.449Z,1.70
2017-05-14T15:46:43.821Z,2.20
2017-05-14T15:49:12.174Z,2.24
2017-05-14T15:51:40.488Z,1.76
2017-05-14T15:54:08.834Z,1.80
2017-05-14T15:56:37.150Z,1.78
2017-05-14T15:59:05.464Z,1.66
2017-05-14T16:01:34.553Z,1.36
2017-05-14T16:04:02.867Z,1.52
2017-05-14T16:06:31.196Z,1.62
2017-05-14T16:08:59.550Z,1.98
2017-05-14T16:11:27.870Z,1.50
2017-05-14T16:13:56.175Z,2.12
2017-05-14T16:16:24.523Z,2.64
2017-05-14T16:18:52.838Z,3.28
2017-05-14T16:21:21.167Z,7.10
2017-05-14T16:23:49.527Z,2.10
2017-05-14T16:26:17.846Z,1.76
2017-05-14T16:28:46.911Z,1.20
2017-05-14T16:31:15.285Z,1.38
2017-05-14T16:33:43.578Z,1.32
2017-05-14T16:36:11.897Z,1.02
2017-05-14T16:38:40.233Z,1.10
2017-05-14T16:41:08.537Z,1.16
2017-05-14T16:43:36.851Z,0.90
2017-05-14T16:46:05.940Z,1.76
2017-05-14T16:48:34.254Z,1.40
2017-05-14T16:51:02.566Z,1.16
2017-05-14T16:53:30.921Z,1.30
2017-05-14T16:55:59.235Z,1.60
2017-05-14T16:58:27.541Z,1.80
2017-05-14T17:00:56.615Z,1.20
2017-05-14T17:03:24.907Z,1.24
2017-05-14T17:05:53.222Z,1.50
2017-05-14T17:08:21.571Z,1.06
2017-05-14T17:10:49.869Z,1.32
2017-05-14T17:13:18.179Z,1.32
2017-05-14T17:15:46.533Z,1.64
2017-05-14T17:18:14.854Z,1.34
2017-05-14T17:20:43.186Z,1.20
2017-05-14T17:23:11.564Z,1.58
2017-05-14T17:25:39.863Z,1.30
2017-05-14T17:28:08.170Z,1.14
2017-05-14T17:30:36.501Z,1.30
2017-05-14T17:33:04.814Z,1.52
2017-05-14T17:35:33.875Z,1.16
2017-05-14T17:38:02.187Z,1.30
2017-05-14T17:40:30.482Z,1.20
2017-05-14T17:42:58.837Z,1.68
2017-05-14T17:45:27.159Z,1.04
2017-05-14T17:47:56.213Z,1.02
2017-05-14T17:50:24.560Z,1.00
2017-05-14T17:52:53.595Z,1.00
2017-05-14T17:55:21.892Z,1.34
2017-05-14T17:57:50.239Z,1.58
2017-05-14T18:00:18.568Z,1.28
2017-05-14T18:02:46.891Z,1.54
2017-05-14T18:05:15.229Z,1.52
2017-05-14T18:07:43.548Z,1.62
2017-05-14T18:10:11.879Z,1.48
2017-05-14T18:12:40.229Z,1.82
2017-05-14T18:15:08.531Z,1.62
2017-05-14T18:17:37.677Z,1.30
2017-05-14T18:20:06.029Z,1.40
2017-05-14T18:22:34.344Z,1.54
2017-05-14T18:25:02.661Z,1.38
2017-05-14T18:27:31.011Z,1.74
2017-05-14T18:29:59.330Z,1.68
2017-05-14T18:32:27.641Z,2.26
2017-05-14T18:34:55.982Z,2.32
2017-05-14T18:37:24.280Z,3.02
2017-05-14T18:39:52.594Z,2.30
2017-05-14T18:42:20.926Z,1.98
2017-05-14T18:44:49.232Z,1.30
2017-05-14T18:47:17.554Z,1.30
2017-05-14T18:49:45.888Z,1.30
2017-05-14T18:52:14.198Z,1.24
2017-05-14T18:54:42.501Z,1.34
2017-05-14T18:57:10.850Z,1.58
2017-05-14T18:59:39.145Z,1.30
2017-05-14T19:02:07.461Z,1.68
2017-05-14T19:04:36.545Z,1.50
2017-05-14T19:07:05.587Z,0.96
2017-05-14T19:09:33.874Z,1.38
2017-05-14T19:12:02.221Z,1.16
2017-05-14T19:14:30.520Z,1.28
2017-05-14T19:16:58.830Z,1.28
2017-05-14T19:19:27.161Z,1.16
2017-05-14T19:21:55.458Z,1.30
2017-05-14T19:24:23.805Z,1.46
2017-05-14T19:26:52.106Z,1.18
2017-05-14T19:29:20.432Z,1.30
2017-05-14T19:31:48.790Z,1.48
2017-05-14T19:34:17.099Z,1.30
2017-05-14T19:36:46.153Z,1.10
2017-05-14T19:39:14.502Z,1.50
2017-05-14T19:41:42.814Z,1.40
2017-05-14T19:44:11.147Z,1.40
2017-05-14T19:46:39.476Z,1.42
2017-05-14T19:49:07.784Z,1.20
2017-05-14T19:51:36.098Z,1.20
2017-05-14T19:54:04.441Z,1.48
2017-05-14T19:56:32.757Z,1.30
2017-05-14T19:59:01.070Z,1.22
2017-05-14T20:01:29.382Z,1.30
2017-05-14T20:03:58.422Z,1.20
2017-05-14T20:06:26.767Z,1.00
2017-05-14T20:08:55.818Z,1.58
2017-05-14T20:11:24.126Z,1.32
2017-05-14T20:13:53.217Z,1.58
2017-05-14T20:16:21.537Z,1.28
2017-05-14T20:18:49.847Z,1.86
2017-05-14T20:21:18.162Z,1.38
2017-05-14T20:23:47.210Z,1.30
2017-05-14T20:26:15.526Z,1.50
2017-05-14T20:28:44.614Z,1.64
2017-05-14T20:31:12.902Z,1.82
2017-05-14T20:33:41.947Z,2.00
2017-05-14T20:36:10.301Z,1.90
2017-05-14T20:38:38.610Z,1.48
2017-05-14T20:41:06.922Z,1.22
2017-05-14T20:43:35.275Z,1.12
2017-05-14T20:46:03.570Z,1.20
2017-05-14T20:48:31.878Z,1.48
2017-05-14T20:51:00.231Z,1.28
2017-05-14T20:53:28.520Z,1.60
2017-05-14T20:55:57.569Z,1.72
2017-05-14T20:58:25.921Z,1.32
2017-05-14T21:00:54.241Z,1.60
2017-05-14T21:03:22.539Z,1.48
2017-05-14T21:05:50.870Z,1.70
2017-05-14T21:08:19.473Z,2.10
2017-05-14T21:10:48.531Z,1.64
2017-05-14T21:13:16.882Z,1.80
2017-05-14T21:15:45.202Z,1.70
2017-05-14T21:18:13.518Z,1.68
2017-05-14T21:20:42.578Z,1.52
2017-05-14T21:23:10.890Z,1.60
2017-05-14T21:25:39.952Z,1.32
2017-05-14T21:28:08.298Z,1.70
2017-05-14T21:30:36.586Z,2.12
2017-05-14T21:33:04.880Z,2.22
2017-05-14T21:35:33.195Z,1.78
2017-05-14T21:38:01.507Z,1.78
2017-05-14T21:40:29.797Z,2.40
2017-05-14T21:42:58.147Z,1.60
2017-05-14T21:45:27.207Z,1.58
2017-05-14T21:47:55.526Z,1.42
2017-05-14T21:50:24.613Z,2.46
2017-05-14T21:52:52.923Z,2.48
2017-05-14T21:55:21.240Z,2.22
2017-05-14T21:57:49.590Z,2.22
2017-05-14T22:00:17.898Z,1.90
2017-05-14T22:02:46.205Z,2.18
2017-05-14T22:05:15.285Z,1.80
2017-05-14T22:07:43.681Z,1.90
2017-05-14T22:10:11.993Z,1.88
2017-05-14T22:12:40.342Z,1.64
2017-05-14T22:15:08.655Z,1.56
2017-05-14T22:17:36.958Z,1.58
2017-05-14T22:20:06.023Z,1.88
2017-05-14T22:22:34.330Z,1.32
2017-05-14T22:25:02.641Z,1.40
2017-05-14T22:27:30.985Z,2.68
2017-05-14T22:29:59.303Z,1.90
2017-05-14T22:32:27.618Z,1.82
2017-05-14T22:34:55.951Z,1.86
2017-05-14T22:37:24.275Z,1.96
2017-05-14T22:39:52.590Z,2.08
2017-05-14T22:42:20.938Z,1.72
2017-05-14T22:44:49.262Z,2.16
2017-05-14T22:47:17.573Z,1.52
2017-05-14T22:49:45.910Z,1.20
2017-05-14T22:52:14.221Z,1.40
2017-05-14T22:54:42.531Z,1.34
2017-05-14T22:57:10.877Z,1.54
2017-05-14T22:59:39.200Z,1.50
2017-05-14T23:02:07.515Z,2.08
2017-05-14T23:04:35.851Z,1.80
2017-05-14T23:07:04.144Z,1.40
2017-05-14T23:09:32.453Z,1.34
2017-05-14T23:12:00.801Z,1.62
2017-05-14T23:14:29.115Z,1.82
2017-05-14T23:16:57.427Z,1.30
2017-05-14T23:19:25.782Z,1.94
2017-05-14T23:21:54.097Z,1.66
2017-05-14T23:24:23.153Z,1.38
2017-05-14T23:26:51.491Z,1.70
2017-05-14T23:29:19.805Z,2.28
2017-05-14T23:31:48.122Z,2.04
2017-05-14T23:34:17.196Z,1.88
2017-05-14T23:36:45.513Z,1.50
2017-05-14T23:39:13.831Z,1.20
2017-05-14T23:41:42.173Z,1.30
2017-05-14T23:44:10.488Z,1.64
2017-05-14T23:46:38.806Z,1.56
2017-05-14T23:49:07.887Z,1.30
2017-05-14T23:51:36.200Z,1.46
2017-05-14T23:54:04.519Z,1.42
2017-05-14T23:56:32.872Z,1.46
2017-05-14T23:59:01.184Z,1.08
